createdAt,value
2018-03-25T00:01:13.711Z,0
2018-03-25T00:02:35.706Z,0
2018-03-25T00:03:57.340Z,0
2018-03-25T00:05:18.990Z,0
2018-03-25T00:06:40.888Z,0
2018-03-25T00:08:02.791Z,0
2018-03-25T00:09:24.205Z,0
2018-03-25T00:10:45.582Z,0
2018-03-25T00:12:06.943Z,0
2018-03-25T00:13:28.621Z,0
2018-03-25T00:14:50.256Z,0
2018-03-25T00:16:12.149Z,0
2018-03-25T00:17:34.047Z,0
2018-03-25T00:18:55.783Z,0
2018-03-25T00:20:18.015Z,0
2018-03-25T00:21:39.630Z,0
2018-03-25T00:23:01.615Z,0
2018-03-25T00:24:23.080Z,0
2018-03-25T00:25:44.487Z,0
2018-03-25T00:27:06.688Z,0
2018-03-25T00:28:28.343Z,0
2018-03-25T00:29:50.454Z,0
2018-03-25T00:31:11.833Z,0
2018-03-25T00:32:33.725Z,0
2018-03-25T00:33:55.593Z,0
2018-03-25T00:35:17.198Z,0
2018-03-25T00:36:38.860Z,0
2018-03-25T00:38:00.728Z,0
2018-03-25T00:39:22.340Z,0
2018-03-25T00:40:44.650Z,0
2018-03-25T00:42:06.242Z,0
2018-03-25T00:43:28.383Z,0
2018-03-25T00:44:49.737Z,0
2018-03-25T00:46:11.889Z,0
2018-03-25T00:47:34.109Z,0
2018-03-25T00:48:55.564Z,0
2018-03-25T00:50:17.171Z,0
2018-03-25T00:51:38.778Z,0
2018-03-25T00:53:00.727Z,0
2018-03-25T00:54:22.324Z,0
2018-03-25T00:55:43.939Z,0
2018-03-25T00:57:05.532Z,0
2018-03-25T00:58:27.168Z,0
2018-03-25T00:59:48.267Z,0
2018-03-25T01:01:09.899Z,0
2018-03-25T01:02:31.565Z,0
2018-03-25T01:03:52.892Z,0
2018-03-25T01:05:14.511Z,0
2018-03-25T01:06:36.657Z,0
2018-03-25T01:07:57.815Z,0
2018-03-25T01:09:19.489Z,0
2018-03-25T01:10:41.251Z,0
2018-03-25T01:12:02.864Z,0
2018-03-25T01:13:24.759Z,0
2018-03-25T01:14:46.953Z,0
2018-03-25T01:16:08.559Z,0
2018-03-25T01:17:30.421Z,0
2018-03-25T01:18:52.143Z,0
2018-03-25T01:20:13.752Z,0
2018-03-25T01:21:35.929Z,0
2018-03-25T01:22:57.544Z,0
2018-03-25T01:24:18.983Z,0
2018-03-25T01:25:40.854Z,0
2018-03-25T01:27:02.442Z,0
2018-03-25T01:28:24.064Z,0
2018-03-25T01:29:45.682Z,0
2018-03-25T01:31:06.749Z,0
2018-03-25T01:32:28.437Z,0
2018-03-25T01:33:50.323Z,0
2018-03-25T01:35:11.680Z,0
2018-03-25T01:36:33.368Z,0
2018-03-25T01:37:54.716Z,0
2018-03-25T01:39:16.595Z,0
2018-03-25T01:40:38.537Z,0
2018-03-25T01:42:00.150Z,0
2018-03-25T01:43:22.064Z,0
2018-03-25T01:44:43.406Z,0
2018-03-25T01:46:05.050Z,0
2018-03-25T01:47:26.668Z,0
2018-03-25T01:48:48.551Z,0
2018-03-25T01:50:09.639Z,0
2018-03-25T01:51:31.277Z,0
2018-03-25T01:52:53.157Z,0
2018-03-25T01:54:14.783Z,0
2018-03-25T01:55:36.671Z,0
2018-03-25T01:56:58.023Z,0
2018-03-25T01:58:19.900Z,0
2018-03-25T01:59:41.537Z,0
2018-03-25T02:01:03.170Z,0
2018-03-25T02:02:25.099Z,0
2018-03-25T02:03:47.072Z,0
2018-03-25T02:05:08.531Z,0
2018-03-25T02:06:29.907Z,0
2018-03-25T02:07:51.892Z,0
2018-03-25T02:09:13.486Z,0
2018-03-25T02:10:35.369Z,0
2018-03-25T02:11:56.724Z,0
2018-03-25T02:13:18.401Z,0
2018-03-25T02:14:40.385Z,0
2018-03-25T02:16:01.875Z,0
2018-03-25T02:17:23.477Z,0
2018-03-25T02:18:45.414Z,0
2018-03-25T02:20:07.282Z,0
2018-03-25T02:21:29.422Z,0
2018-03-25T02:22:51.120Z,0
2018-03-25T02:24:12.031Z,0
2018-03-25T02:25:34.176Z,0
2018-03-25T02:26:56.380Z,0
2018-03-25T02:28:18.064Z,0
2018-03-25T02:29:40.254Z,0
2018-03-25T02:31:02.163Z,0
2018-03-25T02:32:24.325Z,0
2018-03-25T02:33:46.554Z,0
2018-03-25T02:35:08.690Z,0
2018-03-25T02:36:30.142Z,0
2018-03-25T02:37:52.002Z,0
2018-03-25T02:39:14.149Z,0
2018-03-25T02:40:36.082Z,0
2018-03-25T02:41:57.174Z,0
2018-03-25T02:43:18.540Z,0
2018-03-25T02:44:40.423Z,0
2018-03-25T02:46:01.751Z,0
2018-03-25T02:47:24.255Z,0
2018-03-25T02:48:46.132Z,0
2018-03-25T02:50:08.288Z,0
2018-03-25T02:51:30.507Z,0
2018-03-25T02:52:52.672Z,0
2018-03-25T02:54:14.282Z,0
2018-03-25T02:55:35.969Z,0
2018-03-25T02:56:57.907Z,0
2018-03-25T02:58:19.600Z,0
2018-03-25T02:59:41.308Z,0
2018-03-25T03:01:02.955Z,0
2018-03-25T03:02:25.121Z,0
2018-03-25T03:03:47.373Z,0
2018-03-25T03:05:09.544Z,0
2018-03-25T03:06:31.600Z,0
2018-03-25T03:07:53.224Z,0
2018-03-25T03:09:15.087Z,0
2018-03-25T03:10:36.172Z,0
2018-03-25T03:11:57.877Z,0
2018-03-25T03:13:20.027Z,0
2018-03-25T03:14:41.359Z,0
2018-03-25T03:16:02.994Z,0
2018-03-25T03:17:24.861Z,0
2018-03-25T03:18:47.120Z,0
2018-03-25T03:20:09.311Z,0
2018-03-25T03:21:30.923Z,0
2018-03-25T03:22:52.525Z,0
2018-03-25T03:24:14.729Z,0
2018-03-25T03:25:36.656Z,0
2018-03-25T03:26:57.979Z,0
2018-03-25T03:28:19.861Z,0
2018-03-25T03:29:41.211Z,0
2018-03-25T03:31:02.834Z,0
2018-03-25T03:32:24.444Z,0
2018-03-25T03:33:46.024Z,0
2018-03-25T03:35:07.372Z,0
2018-03-25T03:36:28.731Z,0
2018-03-25T03:37:50.368Z,0
2018-03-25T03:39:11.985Z,0
2018-03-25T03:40:34.143Z,0
2018-03-25T03:41:56.018Z,0
2018-03-25T03:43:17.766Z,0
2018-03-25T03:44:39.642Z,0
2018-03-25T03:46:01.253Z,0
2018-03-25T03:47:23.103Z,0
2018-03-25T03:48:44.732Z,0
2018-03-25T03:50:06.087Z,0
2018-03-25T03:51:27.690Z,0
2018-03-25T03:52:48.784Z,0
2018-03-25T03:54:10.662Z,0
2018-03-25T03:55:32.594Z,0
2018-03-25T03:56:54.749Z,0
2018-03-25T03:58:16.341Z,0
2018-03-25T03:59:38.016Z,0
2018-03-25T04:00:59.375Z,0
2018-03-25T04:02:20.968Z,0
2018-03-25T04:03:42.674Z,0
2018-03-25T04:05:04.848Z,0
2018-03-25T04:06:26.551Z,0
2018-03-25T04:07:48.461Z,0
2018-03-25T04:09:10.422Z,0
2018-03-25T04:10:32.276Z,0
2018-03-25T04:11:53.952Z,0
2018-03-25T04:13:16.140Z,0
2018-03-25T04:14:37.753Z,0
2018-03-25T04:15:59.611Z,0
2018-03-25T04:17:21.971Z,0
2018-03-25T04:18:43.310Z,0
2018-03-25T04:20:04.917Z,0
2018-03-25T04:21:27.041Z,0
2018-03-25T04:22:49.336Z,0
2018-03-25T04:24:11.199Z,0
2018-03-25T04:25:32.808Z,0
2018-03-25T04:26:54.693Z,0
2018-03-25T04:28:16.838Z,0
2018-03-25T04:29:38.440Z,0
2018-03-25T04:30:59.678Z,0
2018-03-25T04:32:21.625Z,0
2018-03-25T04:33:43.502Z,0
2018-03-25T04:35:05.421Z,0
2018-03-25T04:36:26.929Z,0
2018-03-25T04:37:48.820Z,0
2018-03-25T04:39:10.424Z,0
2018-03-25T04:40:32.022Z,0
2018-03-25T04:41:53.657Z,0
2018-03-25T04:43:15.284Z,0
2018-03-25T04:44:37.003Z,0
2018-03-25T04:45:58.341Z,0
2018-03-25T04:47:20.035Z,4
2018-03-25T04:48:41.931Z,0
2018-03-25T04:50:03.809Z,0
2018-03-25T04:51:24.647Z,4
2018-03-25T04:52:46.551Z,4
2018-03-25T04:54:08.200Z,4
2018-03-25T04:55:30.080Z,8
2018-03-25T04:56:51.956Z,8
2018-03-25T04:58:13.295Z,8
2018-03-25T04:59:35.286Z,8
2018-03-25T05:00:56.873Z,12
2018-03-25T05:02:19.044Z,16
2018-03-25T05:03:40.916Z,20
2018-03-25T05:05:02.805Z,24
2018-03-25T05:06:24.164Z,24
2018-03-25T05:07:46.030Z,32
2018-03-25T05:09:07.625Z,36
2018-03-25T05:10:29.501Z,40
2018-03-25T05:11:50.917Z,48
2018-03-25T05:13:12.901Z,56
2018-03-25T05:14:35.101Z,64
2018-03-25T05:15:56.170Z,72
2018-03-25T05:17:18.046Z,84
2018-03-25T05:18:39.134Z,96
2018-03-25T05:20:00.756Z,108
2018-03-25T05:21:22.093Z,124
2018-03-25T05:22:43.944Z,140
2018-03-25T05:24:06.084Z,156
2018-03-25T05:25:27.710Z,172
2018-03-25T05:26:49.562Z,192
2018-03-25T05:28:11.201Z,208
2018-03-25T05:29:32.811Z,224
2018-03-25T05:30:54.255Z,252
2018-03-25T05:32:16.017Z,284
2018-03-25T05:33:37.691Z,312
2018-03-25T05:34:59.620Z,336
2018-03-25T05:36:21.524Z,364
2018-03-25T05:37:42.716Z,396
2018-03-25T05:39:03.884Z,428
2018-03-25T05:40:25.770Z,460
2018-03-25T05:41:47.141Z,488
2018-03-25T05:43:08.886Z,516
2018-03-25T05:44:30.282Z,536
2018-03-25T05:45:51.622Z,564
2018-03-25T05:47:13.539Z,604
2018-03-25T05:48:34.612Z,644
2018-03-25T05:49:56.243Z,680
2018-03-25T05:51:17.872Z,724
2018-03-25T05:52:40.312Z,768
2018-03-25T05:54:02.290Z,812
2018-03-25T05:55:23.691Z,864
2018-03-25T05:56:45.392Z,908
2018-03-25T05:58:07.267Z,956
2018-03-25T05:59:28.884Z,992
2018-03-25T06:00:50.499Z,1020
2018-03-25T06:02:11.997Z,1048
2018-03-25T06:03:33.620Z,1076
2018-03-25T06:04:55.280Z,1104
2018-03-25T06:06:16.717Z,1148
2018-03-25T06:07:38.318Z,1196
2018-03-25T06:09:00.040Z,1240
2018-03-25T06:10:22.213Z,1280
2018-03-25T06:11:43.921Z,1312
2018-03-25T06:13:05.549Z,1344
2018-03-25T06:14:27.151Z,1392
2018-03-25T06:15:48.590Z,1440
2018-03-25T06:17:10.587Z,1492
2018-03-25T06:18:32.186Z,1556
2018-03-25T06:19:54.058Z,1624
2018-03-25T06:21:15.695Z,1692
2018-03-25T06:22:37.563Z,1748
2018-03-25T06:23:59.502Z,1792
2018-03-25T06:25:21.134Z,1844
2018-03-25T06:26:42.484Z,1884
2018-03-25T06:28:03.835Z,1936
2018-03-25T06:29:25.521Z,1980
2018-03-25T06:30:47.416Z,2016
2018-03-25T06:32:08.793Z,2064
2018-03-25T06:33:30.414Z,2120
2018-03-25T06:34:52.297Z,2184
2018-03-25T06:36:13.641Z,2244
2018-03-25T06:37:35.811Z,2292
2018-03-25T06:38:57.688Z,2344
2018-03-25T06:40:18.800Z,2392
2018-03-25T06:41:40.167Z,2436
2018-03-25T06:43:01.324Z,2488
2018-03-25T06:44:22.681Z,2544
2018-03-25T06:45:44.578Z,2604
2018-03-25T06:47:06.483Z,2676
2018-03-25T06:48:28.353Z,2728
2018-03-25T06:49:50.236Z,2792
2018-03-25T06:51:11.917Z,2868
2018-03-25T06:52:33.808Z,2964
2018-03-25T06:53:55.948Z,3092
2018-03-25T06:55:17.815Z,3200
2018-03-25T06:56:39.449Z,3296
2018-03-25T06:58:01.371Z,3384
2018-03-25T06:59:23.527Z,3476
2018-03-25T07:00:45.660Z,3560
2018-03-25T07:02:07.629Z,3640
2018-03-25T07:03:29.521Z,3692
2018-03-25T07:04:51.190Z,3732
2018-03-25T07:06:13.055Z,3780
2018-03-25T07:07:35.019Z,3860
2018-03-25T07:08:56.948Z,3932
2018-03-25T07:10:18.670Z,4004
2018-03-25T07:11:40.258Z,4080
2018-03-25T07:13:02.469Z,4136
2018-03-25T07:14:24.387Z,4208
2018-03-25T07:15:46.271Z,4260
2018-03-25T07:17:08.163Z,4284
2018-03-25T07:18:30.017Z,4284
2018-03-25T07:19:51.912Z,4320
2018-03-25T07:21:13.653Z,4396
2018-03-25T07:22:35.606Z,4476
2018-03-25T07:23:57.477Z,4536
2018-03-25T07:25:19.146Z,4600
2018-03-25T07:26:40.820Z,4676
2018-03-25T07:28:01.912Z,4740
2018-03-25T07:29:24.044Z,4784
2018-03-25T07:30:45.789Z,4844
2018-03-25T07:32:07.624Z,4884
2018-03-25T07:33:29.245Z,4920
2018-03-25T07:34:50.594Z,4972
2018-03-25T07:36:12.051Z,5052
2018-03-25T07:37:33.683Z,5120
2018-03-25T07:38:55.382Z,5152
2018-03-25T07:40:17.260Z,5160
2018-03-25T07:41:39.242Z,5192
2018-03-25T07:43:01.129Z,5244
2018-03-25T07:44:23.298Z,5268
2018-03-25T07:45:44.873Z,5280
2018-03-25T07:47:06.489Z,5304
2018-03-25T07:48:28.113Z,5336
2018-03-25T07:49:49.551Z,5372
2018-03-25T07:51:11.305Z,5436
2018-03-25T07:52:33.184Z,5456
2018-03-25T07:53:55.399Z,5500
2018-03-25T07:55:17.032Z,5588
2018-03-25T07:56:38.470Z,5692
2018-03-25T07:57:59.840Z,5800
2018-03-25T07:59:21.761Z,5888
2018-03-25T08:00:43.093Z,6000
2018-03-25T08:02:04.985Z,6096
2018-03-25T08:03:26.336Z,6172
2018-03-25T08:04:47.413Z,6244
2018-03-25T08:06:09.509Z,6312
2018-03-25T08:07:31.465Z,6372
2018-03-25T08:08:52.810Z,6464
2018-03-25T08:10:14.958Z,6592
2018-03-25T08:11:36.576Z,6740
2018-03-25T08:12:58.754Z,6892
2018-03-25T08:14:20.644Z,7052
2018-03-25T08:15:42.532Z,7208
2018-03-25T08:17:04.485Z,7400
2018-03-25T08:18:26.661Z,7624
2018-03-25T08:19:48.340Z,7784
2018-03-25T08:21:10.241Z,7904
2018-03-25T08:22:31.890Z,8044
2018-03-25T08:23:53.915Z,8168
2018-03-25T08:25:15.551Z,8280
2018-03-25T08:26:37.424Z,8396
2018-03-25T08:27:59.102Z,8436
2018-03-25T08:29:21.291Z,8428
2018-03-25T08:30:43.290Z,8392
2018-03-25T08:32:05.182Z,8272
2018-03-25T08:33:27.161Z,8236
2018-03-25T08:34:49.325Z,8272
2018-03-25T08:36:11.030Z,8392
2018-03-25T08:37:32.385Z,8516
2018-03-25T08:38:54.009Z,8640
2018-03-25T08:40:15.666Z,8804
2018-03-25T08:41:37.552Z,9060
2018-03-25T08:42:59.450Z,9336
2018-03-25T08:44:21.753Z,9568
2018-03-25T08:45:43.488Z,9884
2018-03-25T08:47:05.738Z,10288
2018-03-25T08:48:27.616Z,10816
2018-03-25T08:49:49.287Z,11328
2018-03-25T08:51:10.382Z,11544
2018-03-25T08:52:32.273Z,11520
2018-03-25T08:53:54.173Z,11584
2018-03-25T08:55:16.349Z,11712
2018-03-25T08:56:37.982Z,12012
2018-03-25T08:57:59.920Z,12140
2018-03-25T08:59:21.530Z,12024
2018-03-25T09:00:43.230Z,11736
2018-03-25T09:02:04.886Z,11564
2018-03-25T09:03:26.531Z,11444
2018-03-25T09:04:48.214Z,11440
2018-03-25T09:06:10.237Z,11504
2018-03-25T09:07:31.872Z,11568
2018-03-25T09:08:53.785Z,11644
2018-03-25T09:10:15.426Z,11904
2018-03-25T09:11:37.309Z,12144
2018-03-25T09:12:59.202Z,12392
2018-03-25T09:14:21.101Z,12384
2018-03-25T09:15:43.379Z,12464
2018-03-25T09:17:05.023Z,12440
2018-03-25T09:18:26.922Z,12444
2018-03-25T09:19:48.096Z,12468
2018-03-25T09:21:09.484Z,12600
2018-03-25T09:22:31.654Z,12572
2018-03-25T09:23:53.669Z,12472
2018-03-25T09:25:15.855Z,12484
2018-03-25T09:26:37.750Z,12560
2018-03-25T09:27:59.652Z,12724
2018-03-25T09:29:21.311Z,12784
2018-03-25T09:30:43.222Z,12848
2018-03-25T09:32:04.852Z,12844
2018-03-25T09:33:26.743Z,12708
2018-03-25T09:34:49.048Z,12740
2018-03-25T09:36:10.719Z,12848
2018-03-25T09:37:32.693Z,13012
2018-03-25T09:38:54.625Z,13036
2018-03-25T09:40:16.314Z,13152
2018-03-25T09:41:38.252Z,13392
2018-03-25T09:42:59.672Z,13544
2018-03-25T09:44:21.707Z,13552
2018-03-25T09:45:43.708Z,13584
2018-03-25T09:47:06.016Z,13624
2018-03-25T09:48:27.362Z,13700
2018-03-25T09:49:49.250Z,13808
2018-03-25T09:51:10.885Z,13916
2018-03-25T09:52:32.789Z,13984
2018-03-25T09:53:54.902Z,13816
2018-03-25T09:55:17.071Z,13792
2018-03-25T09:56:38.709Z,13844
2018-03-25T09:58:00.439Z,13944
2018-03-25T09:59:22.719Z,14024
2018-03-25T10:00:44.602Z,14144
2018-03-25T10:02:06.243Z,14108
2018-03-25T10:03:27.992Z,14228
2018-03-25T10:04:49.759Z,14564
2018-03-25T10:06:11.817Z,14816
2018-03-25T10:07:33.517Z,15008
2018-03-25T10:08:55.232Z,15304
2018-03-25T10:10:17.468Z,15384
2018-03-25T10:11:54.253Z,15516
2018-03-25T10:13:16.066Z,15620
2018-03-25T10:14:47.673Z,15652
2018-03-25T10:16:11.621Z,15632
2018-03-25T10:17:33.683Z,15516
2018-03-25T10:18:55.671Z,15484
2018-03-25T10:20:17.329Z,15440
2018-03-25T10:21:43.340Z,15508
2018-03-25T10:23:12.929Z,15556
2018-03-25T10:24:38.443Z,15492
2018-03-25T10:26:05.036Z,15568
2018-03-25T10:27:32.082Z,15512
2018-03-25T10:28:59.550Z,15532
2018-03-25T10:30:23.896Z,15672
2018-03-25T10:31:48.557Z,15684
2018-03-25T10:33:10.684Z,15840
2018-03-25T10:34:32.341Z,15936
2018-03-25T10:35:53.743Z,16092
2018-03-25T10:37:15.899Z,16416
2018-03-25T10:38:37.913Z,16544
2018-03-25T10:39:59.463Z,16608
2018-03-25T10:41:21.623Z,16704
2018-03-25T10:42:43.562Z,16832
2018-03-25T10:44:04.993Z,16960
2018-03-25T10:45:27.206Z,17024
2018-03-25T10:46:48.851Z,17184
2018-03-25T10:48:10.761Z,17248
2018-03-25T10:49:32.513Z,17280
2018-03-25T10:50:54.195Z,17312
2018-03-25T10:52:16.497Z,17344
2018-03-25T10:53:38.193Z,17440
2018-03-25T10:54:59.841Z,17504
2018-03-25T10:56:21.729Z,17536
2018-03-25T10:57:44.048Z,17472
2018-03-25T10:59:06.260Z,17408
2018-03-25T11:00:27.673Z,17440
2018-03-25T11:01:49.835Z,17504
2018-03-25T11:03:11.872Z,17632
2018-03-25T11:04:33.886Z,17632
2018-03-25T11:05:55.571Z,17600
2018-03-25T11:07:16.420Z,17440
2018-03-25T11:08:37.825Z,17312
2018-03-25T11:10:00.063Z,17120
2018-03-25T11:11:22.302Z,17184
2018-03-25T11:12:44.062Z,17440
2018-03-25T11:14:37.573Z,17568
2018-03-25T11:15:59.586Z,17472
2018-03-25T11:17:21.263Z,17344
2018-03-25T11:18:43.138Z,17280
2018-03-25T11:20:04.932Z,17216
2018-03-25T11:21:26.624Z,17152
2018-03-25T11:22:48.246Z,17152
2018-03-25T11:24:10.524Z,16992
2018-03-25T11:25:31.908Z,16864
2018-03-25T11:26:53.828Z,16704
2018-03-25T11:28:15.784Z,16544
2018-03-25T11:29:37.704Z,16352
2018-03-25T11:30:59.655Z,16104
2018-03-25T11:32:21.654Z,16060
2018-03-25T11:33:43.315Z,16036
2018-03-25T11:35:05.464Z,15956
2018-03-25T11:36:27.644Z,15908
2018-03-25T11:37:49.826Z,15784
2018-03-25T11:39:11.784Z,15880
2018-03-25T11:40:33.696Z,15936
2018-03-25T11:41:55.872Z,15980
2018-03-25T11:43:17.793Z,15952
2018-03-25T11:44:38.899Z,15924
2018-03-25T11:46:00.882Z,15980
2018-03-25T11:47:22.916Z,16256
2018-03-25T11:48:44.427Z,16448
2018-03-25T11:50:06.351Z,16416
2018-03-25T11:51:28.272Z,16384
2018-03-25T11:52:49.754Z,16256
2018-03-25T11:54:11.842Z,16076
2018-03-25T11:55:33.745Z,15948
2018-03-25T11:56:55.665Z,15944
2018-03-25T11:58:17.502Z,15916
2018-03-25T11:59:39.156Z,15920
2018-03-25T12:01:01.203Z,15892
2018-03-25T12:02:22.903Z,15728
2018-03-25T12:03:44.895Z,15560
2018-03-25T12:05:06.914Z,15396
2018-03-25T12:06:28.290Z,15312
2018-03-25T12:07:50.188Z,15352
2018-03-25T12:09:11.672Z,15296
2018-03-25T12:10:33.315Z,15260
2018-03-25T12:11:55.223Z,15412
2018-03-25T12:13:16.849Z,15396
2018-03-25T12:14:38.504Z,15128
2018-03-25T12:16:00.673Z,14792
2018-03-25T12:17:22.604Z,14720
2018-03-25T12:18:44.243Z,14772
2018-03-25T12:20:06.156Z,14760
2018-03-25T12:21:27.776Z,14596
2018-03-25T12:22:49.435Z,14708
2018-03-25T12:24:11.452Z,14628
2018-03-25T12:25:33.343Z,14220
2018-03-25T12:26:55.275Z,13948
2018-03-25T12:28:16.921Z,13920
2018-03-25T12:29:39.077Z,14060
2018-03-25T12:31:01.244Z,13944
2018-03-25T12:32:23.410Z,13964
2018-03-25T12:33:45.105Z,14012
2018-03-25T12:35:07.386Z,14316
2018-03-25T12:36:29.562Z,14544
2018-03-25T12:37:51.768Z,14392
2018-03-25T12:39:13.396Z,14472
2018-03-25T12:40:35.394Z,14740
2018-03-25T12:41:57.446Z,14564
2018-03-25T12:43:19.332Z,14316
2018-03-25T12:44:41.549Z,14048
2018-03-25T12:46:03.134Z,13952
2018-03-25T12:47:25.043Z,14000
2018-03-25T12:48:46.943Z,14164
2018-03-25T12:50:08.960Z,14244
2018-03-25T12:51:31.254Z,14068
2018-03-25T12:52:53.476Z,13888
2018-03-25T12:54:15.466Z,13760
2018-03-25T12:55:37.651Z,13512
2018-03-25T12:56:59.273Z,13272
2018-03-25T12:58:21.505Z,13096
2018-03-25T12:59:43.675Z,12872
2018-03-25T13:01:05.840Z,12784
2018-03-25T13:02:27.863Z,12812
2018-03-25T13:03:49.799Z,12736
2018-03-25T13:05:11.782Z,12604
2018-03-25T13:06:33.957Z,12688
2018-03-25T13:07:55.087Z,13232
2018-03-25T13:09:16.852Z,13644
2018-03-25T13:10:38.869Z,14044
2018-03-25T13:12:00.821Z,13900
2018-03-25T13:13:23.127Z,13904
2018-03-25T13:14:45.020Z,13776
2018-03-25T13:16:07.333Z,13664
2018-03-25T13:17:29.255Z,13548
2018-03-25T13:18:50.889Z,13532
2018-03-25T13:20:12.606Z,13456
2018-03-25T13:21:34.543Z,13484
2018-03-25T13:22:56.429Z,13388
2018-03-25T13:24:18.066Z,13420
2018-03-25T13:25:40.336Z,13340
2018-03-25T13:27:01.972Z,13284
2018-03-25T13:28:23.868Z,13212
2018-03-25T13:29:45.789Z,13112
2018-03-25T13:31:07.990Z,13000
2018-03-25T13:32:29.939Z,12884
2018-03-25T13:33:51.923Z,12720
2018-03-25T13:35:13.835Z,12664
2018-03-25T13:36:35.757Z,12500
2018-03-25T13:37:57.990Z,12516
2018-03-25T13:39:19.612Z,12368
2018-03-25T13:40:40.955Z,12336
2018-03-25T13:42:02.937Z,12304
2018-03-25T13:43:24.612Z,12208
2018-03-25T13:44:46.526Z,12184
2018-03-25T13:46:07.915Z,12032
2018-03-25T13:47:30.105Z,12016
2018-03-25T13:48:52.016Z,11888
2018-03-25T13:50:13.948Z,11884
2018-03-25T13:51:35.352Z,11792
2018-03-25T13:52:57.581Z,11760
2018-03-25T13:54:19.843Z,11724
2018-03-25T13:55:41.752Z,11680
2018-03-25T13:57:03.402Z,11636
2018-03-25T13:58:25.341Z,11576
2018-03-25T13:59:47.280Z,11452
2018-03-25T14:01:09.532Z,11376
2018-03-25T14:02:31.346Z,11420
2018-03-25T14:03:52.742Z,11280
2018-03-25T14:05:14.945Z,11220
2018-03-25T14:06:36.110Z,11212
2018-03-25T14:07:58.404Z,11172
2018-03-25T14:09:20.294Z,11072
2018-03-25T14:10:42.337Z,10936
2018-03-25T14:12:04.285Z,10840
2018-03-25T14:13:26.464Z,10732
2018-03-25T14:14:48.761Z,10616
2018-03-25T14:16:10.682Z,10516
2018-03-25T14:17:32.854Z,10336
2018-03-25T14:18:55.084Z,10152
2018-03-25T14:20:16.453Z,10052
2018-03-25T14:21:38.622Z,9832
2018-03-25T14:23:00.106Z,9688
2018-03-25T14:24:22.004Z,9616
2018-03-25T14:25:43.633Z,9528
2018-03-25T14:27:05.519Z,9468
2018-03-25T14:28:27.419Z,9340
2018-03-25T14:29:49.075Z,9212
2018-03-25T14:31:11.162Z,9140
2018-03-25T14:32:32.573Z,8968
2018-03-25T14:33:54.512Z,8904
2018-03-25T14:35:16.702Z,8824
2018-03-25T14:36:38.864Z,8672
2018-03-25T14:38:00.772Z,8592
2018-03-25T14:39:22.698Z,8488
2018-03-25T14:40:44.355Z,8376
2018-03-25T14:42:05.992Z,8224
2018-03-25T14:43:27.614Z,8092
2018-03-25T14:44:49.517Z,8028
2018-03-25T14:46:11.425Z,7868
2018-03-25T14:47:33.352Z,7696
2018-03-25T14:48:55.659Z,7476
2018-03-25T14:50:17.583Z,7312
2018-03-25T14:51:39.762Z,7160
2018-03-25T14:53:01.926Z,7012
2018-03-25T14:54:23.620Z,6880
2018-03-25T14:55:45.802Z,6676
2018-03-25T14:57:07.461Z,6448
2018-03-25T14:58:29.401Z,6228
2018-03-25T14:59:51.568Z,6048
2018-03-25T15:01:13.221Z,5960
2018-03-25T15:02:35.138Z,5796
2018-03-25T15:03:57.163Z,5668
2018-03-25T15:05:19.082Z,5712
2018-03-25T15:06:41.116Z,5716
2018-03-25T15:08:03.372Z,5664
2018-03-25T15:09:25.550Z,5720
2018-03-25T15:10:47.907Z,5712
2018-03-25T15:12:09.813Z,5584
2018-03-25T15:13:31.725Z,5516
2018-03-25T15:14:53.939Z,5536
2018-03-25T15:16:15.691Z,5456
2018-03-25T15:17:37.583Z,5324
2018-03-25T15:18:58.964Z,5224
2018-03-25T15:20:20.686Z,5180
2018-03-25T15:21:42.323Z,5152
2018-03-25T15:23:04.234Z,5108
2018-03-25T15:24:26.133Z,5012
2018-03-25T15:25:48.367Z,5000
2018-03-25T15:27:10.332Z,5036
2018-03-25T15:28:32.256Z,5024
2018-03-25T15:29:54.241Z,4876
2018-03-25T15:31:15.897Z,4740
2018-03-25T15:32:38.096Z,4684
2018-03-25T15:33:59.723Z,4608
2018-03-25T15:35:21.634Z,4512
2018-03-25T15:36:43.812Z,4428
2018-03-25T15:38:05.558Z,4388
2018-03-25T15:39:27.664Z,4440
2018-03-25T15:40:49.583Z,4532
2018-03-25T15:42:11.524Z,4568
2018-03-25T15:43:32.929Z,4492
2018-03-25T15:44:55.293Z,4404
2018-03-25T15:46:18.825Z,4360
2018-03-25T15:48:12.353Z,4304
2018-03-25T15:49:34.572Z,4144
2018-03-25T15:50:56.803Z,4000
2018-03-25T15:52:18.798Z,3940
2018-03-25T15:53:40.996Z,3896
2018-03-25T15:55:02.930Z,3900
2018-03-25T15:56:24.893Z,3912
2018-03-25T15:57:46.822Z,3936
2018-03-25T15:59:08.641Z,3924
2018-03-25T16:00:30.032Z,3740
2018-03-25T16:01:51.979Z,3548
2018-03-25T16:03:13.363Z,3456
2018-03-25T16:04:35.578Z,3448
2018-03-25T16:05:57.902Z,3428
2018-03-25T16:07:20.152Z,3380
2018-03-25T16:08:42.240Z,3312
2018-03-25T16:10:04.230Z,3208
2018-03-25T16:11:26.551Z,3108
2018-03-25T16:12:48.472Z,3064
2018-03-25T16:14:10.728Z,3072
2018-03-25T16:15:32.631Z,3088
2018-03-25T16:16:54.278Z,3100
2018-03-25T16:18:15.720Z,3120
2018-03-25T16:19:37.529Z,3120
2018-03-25T16:20:59.722Z,3032
2018-03-25T16:22:21.810Z,2916
2018-03-25T16:23:43.900Z,2828
2018-03-25T16:25:06.660Z,2752
2018-03-25T16:26:29.692Z,2720
2018-03-25T16:27:51.954Z,2640
2018-03-25T16:29:13.374Z,2528
2018-03-25T16:30:35.660Z,2408
2018-03-25T16:31:57.876Z,2328
2018-03-25T16:33:19.864Z,2232
2018-03-25T16:34:42.044Z,2140
2018-03-25T16:36:04.254Z,2060
2018-03-25T16:37:26.732Z,2012
2018-03-25T16:38:49.163Z,1972
2018-03-25T16:40:11.243Z,1928
2018-03-25T16:41:33.041Z,1868
2018-03-25T16:42:55.409Z,1788
2018-03-25T16:44:17.476Z,1728
2018-03-25T16:45:39.468Z,1692
2018-03-25T16:47:01.454Z,1656
2018-03-25T16:48:25.631Z,1608
2018-03-25T16:49:47.280Z,1552
2018-03-25T16:51:09.224Z,1496
2018-03-25T16:52:31.400Z,1452
2018-03-25T16:53:53.090Z,1400
2018-03-25T16:55:15.454Z,1348
2018-03-25T16:56:37.405Z,1300
2018-03-25T16:57:59.372Z,1264
2018-03-25T16:59:20.891Z,1228
2018-03-25T17:00:42.861Z,1196
2018-03-25T17:02:05.147Z,1156
2018-03-25T17:03:27.159Z,1116
2018-03-25T17:04:49.074Z,1076
2018-03-25T17:06:11.375Z,1020
2018-03-25T17:07:33.531Z,952
2018-03-25T17:08:55.707Z,896
2018-03-25T17:10:17.917Z,848
2018-03-25T17:11:40.189Z,812
2018-03-25T17:13:01.949Z,768
2018-03-25T17:14:24.282Z,740
2018-03-25T17:15:46.491Z,716
2018-03-25T17:17:08.690Z,684
2018-03-25T17:18:30.605Z,644
2018-03-25T17:19:52.296Z,600
2018-03-25T17:21:14.487Z,556
2018-03-25T17:22:36.661Z,512
2018-03-25T17:23:58.592Z,468
2018-03-25T17:25:20.571Z,428
2018-03-25T17:26:42.601Z,384
2018-03-25T17:28:04.812Z,336
2018-03-25T17:29:27.066Z,300
2018-03-25T17:30:48.713Z,268
2018-03-25T17:32:10.713Z,240
2018-03-25T17:33:32.956Z,208
2018-03-25T17:34:55.182Z,172
2018-03-25T17:36:16.857Z,148
2018-03-25T17:37:38.803Z,128
2018-03-25T17:39:01.322Z,116
2018-03-25T17:40:22.691Z,108
2018-03-25T17:41:44.905Z,100
2018-03-25T17:43:06.862Z,92
2018-03-25T17:44:29.149Z,84
2018-03-25T17:45:51.338Z,80
2018-03-25T17:47:13.502Z,72
2018-03-25T17:48:35.685Z,64
2018-03-25T17:49:57.692Z,56
2018-03-25T17:51:19.896Z,44
2018-03-25T17:52:41.378Z,36
2018-03-25T17:54:02.772Z,32
2018-03-25T17:55:24.723Z,24
2018-03-25T17:56:46.814Z,20
2018-03-25T17:58:08.729Z,16
2018-03-25T17:59:30.943Z,12
2018-03-25T18:00:52.820Z,12
2018-03-25T18:02:15.049Z,8
2018-03-25T18:03:37.053Z,8
2018-03-25T18:04:58.763Z,4
2018-03-25T18:06:20.452Z,4
2018-03-25T18:07:42.373Z,4
2018-03-25T18:09:03.787Z,4
2018-03-25T18:10:25.469Z,4
2018-03-25T18:11:47.669Z,4
2018-03-25T18:13:09.613Z,0
2018-03-25T18:14:31.958Z,0
2018-03-25T18:15:53.864Z,0
2018-03-25T18:17:39.271Z,0
2018-03-25T18:19:00.920Z,0
2018-03-25T18:20:22.585Z,0
2018-03-25T18:21:44.633Z,0
2018-03-25T18:23:06.312Z,0
2018-03-25T18:24:28.502Z,0
2018-03-25T18:25:50.578Z,0
2018-03-25T18:27:11.770Z,0
2018-03-25T18:28:33.701Z,0
2018-03-25T18:29:55.093Z,0
2018-03-25T18:31:17.188Z,0
2018-03-25T18:32:39.239Z,0
2018-03-25T18:34:01.563Z,0
2018-03-25T18:35:23.764Z,0
2018-03-25T18:36:45.414Z,0
2018-03-25T18:38:07.611Z,0
2018-03-25T18:39:29.643Z,0